createdAt,value
2023-05-17T00:02:54.472Z,1.88
2023-05-17T00:05:56.208Z,1.90
2023-05-17T00:08:57.835Z,2.13
2023-05-17T00:11:59.447Z,1.90
2023-05-17T00:15:01.185Z,1.85
2023-05-17T00:18:02.909Z,2.20
2023-05-17T00:21:04.639Z,2.15
2023-05-17T00:24:06.584Z,1.90
2023-05-17T00:27:08.237Z,1.85
2023-05-17T00:30:10.384Z,1.88
2023-05-17T00:33:12.105Z,2.10
2023-05-17T00:36:13.760Z,1.95
2023-05-17T00:39:15.378Z,2.15
2023-05-17T00:42:17.035Z,1.85
2023-05-17T00:45:18.658Z,1.90
2023-05-17T00:48:25.493Z,1.88
2023-05-17T00:51:28.606Z,2.35
2023-05-17T00:54:31.143Z,1.85
2023-05-17T00:57:32.774Z,2.33
2023-05-17T01:03:38.297Z,1.83
2023-05-17T01:06:40.338Z,1.83
2023-05-17T01:09:42.483Z,2.30
2023-05-17T01:13:10.938Z,2.03
2023-05-17T01:16:21.244Z,2.53
2023-05-17T01:19:45.287Z,2.10
2023-05-17T01:23:25.072Z,2.15
2023-05-17T01:26:32.819Z,2.10
2023-05-17T01:29:37.829Z,2.22
2023-05-17T01:32:43.049Z,2.20
2023-05-17T01:35:45.099Z,2.35
2023-05-17T01:38:47.713Z,2.58
2023-05-17T01:42:02.637Z,2.05
2023-05-17T01:45:14.509Z,2.03
2023-05-17T01:48:31.130Z,2.08
2023-05-17T01:51:37.018Z,2.25
2023-05-17T01:54:50.846Z,1.90
2023-05-17T01:57:54.554Z,2.10
2023-05-17T02:01:00.488Z,2.20
2023-05-17T02:04:02.156Z,2.60
2023-05-17T02:07:06.744Z,2.80
2023-05-17T02:10:09.154Z,2.30
2023-05-17T02:13:16.409Z,2.20
2023-05-17T02:16:18.874Z,2.87
2023-05-17T02:19:20.527Z,2.45
2023-05-17T02:22:22.114Z,2.30
2023-05-17T02:25:23.739Z,2.10
2023-05-17T02:28:25.455Z,2.28
2023-05-17T02:31:27.129Z,2.35
2023-05-17T02:34:29.078Z,2.28
2023-05-17T02:37:30.684Z,2.47
2023-05-17T02:40:32.314Z,2.15
2023-05-17T02:43:37.079Z,2.75
2023-05-17T02:46:38.749Z,2.47
2023-05-17T02:49:40.387Z,2.00
2023-05-17T02:52:42.028Z,2.80
2023-05-17T02:55:43.766Z,2.53
2023-05-17T02:58:45.542Z,3.00
2023-05-17T03:01:47.248Z,3.42
2023-05-17T03:04:49.095Z,3.20
2023-05-17T03:07:51.917Z,2.50
2023-05-17T03:10:53.883Z,2.70
2023-05-17T03:13:55.677Z,2.70
2023-05-17T03:17:01.094Z,2.72
2023-05-17T03:20:03.835Z,2.83
2023-05-17T03:23:06.287Z,3.20
2023-05-17T03:26:12.201Z,2.95
2023-05-17T03:29:20.536Z,3.45
2023-05-17T03:32:22.667Z,2.75
2023-05-17T03:35:24.413Z,3.60
2023-05-17T03:38:29.636Z,3.30
2023-05-17T03:41:32.084Z,3.00
2023-05-17T03:44:37.494Z,5.10
2023-05-17T03:47:39.336Z,3.25
2023-05-17T03:50:41.168Z,2.85
2023-05-17T03:53:43.710Z,3.50
2023-05-17T03:56:47.242Z,2.72
2023-05-17T03:59:49.317Z,3.78
2023-05-17T04:02:52.523Z,2.83
2023-05-17T04:06:00.581Z,3.13
2023-05-17T04:09:02.379Z,3.38
2023-05-17T04:12:04.475Z,3.70
2023-05-17T04:15:06.824Z,3.78
2023-05-17T04:18:10.362Z,4.47
2023-05-17T04:21:12.205Z,4.30
2023-05-17T04:24:14.556Z,3.70
2023-05-17T04:27:17.522Z,4.65
2023-05-17T04:33:24.311Z,4.20
2023-05-17T04:36:26.459Z,4.38
2023-05-17T04:39:30.697Z,4.70
2023-05-17T04:42:33.391Z,5.68
2023-05-17T04:45:35.434Z,5.63
2023-05-17T04:48:39.023Z,4.32
2023-05-17T04:51:41.484Z,3.95
2023-05-17T04:54:44.399Z,3.35
2023-05-17T04:57:46.554Z,4.13
2023-05-17T05:00:51.525Z,6.85
2023-05-17T05:03:53.338Z,7.60
2023-05-17T05:06:55.158Z,6.03
2023-05-17T05:09:57.170Z,3.92
2023-05-17T05:12:59.279Z,3.47
2023-05-17T05:16:01.033Z,4.55
2023-05-17T05:19:03.738Z,4.33
2023-05-17T05:22:06.576Z,4.00
2023-05-17T05:25:11.518Z,3.47
2023-05-17T05:28:13.665Z,4.22
2023-05-17T05:31:16.456Z,3.38
2023-05-17T05:34:24.026Z,3.72
2023-05-17T05:37:25.710Z,3.60
2023-05-17T05:40:28.812Z,3.55
2023-05-17T05:43:30.983Z,3.40
2023-05-17T05:46:32.838Z,3.40
2023-05-17T05:49:36.989Z,3.20
2023-05-17T05:52:38.833Z,3.80
2023-05-17T05:55:42.233Z,3.40
2023-05-17T05:58:45.106Z,3.17
2023-05-17T06:01:47.770Z,4.00
2023-05-17T06:04:49.497Z,3.92
2023-05-17T06:07:51.306Z,3.58
2023-05-17T06:10:53.672Z,3.85
2023-05-17T06:13:55.517Z,3.50
2023-05-17T06:16:57.253Z,3.53
2023-05-17T06:19:58.932Z,3.60
2023-05-17T06:23:00.744Z,3.90
2023-05-17T06:26:02.550Z,3.92
2023-05-17T06:29:04.296Z,3.80
2023-05-17T06:32:06.532Z,3.33
2023-05-17T06:35:08.708Z,3.03
2023-05-17T06:38:10.406Z,3.45
2023-05-17T06:41:12.085Z,3.28
2023-05-17T06:44:14.103Z,3.70
2023-05-17T06:47:15.937Z,3.50
2023-05-17T06:50:17.586Z,3.60
2023-05-17T06:53:19.212Z,2.95
2023-05-17T06:56:20.866Z,2.70
2023-05-17T06:59:22.502Z,2.50
2023-05-17T07:02:24.138Z,2.78
2023-05-17T07:05:26.112Z,2.97
2023-05-17T07:08:27.984Z,3.05
2023-05-17T07:11:29.676Z,2.70
2023-05-17T07:14:31.668Z,3.15
2023-05-17T07:17:33.353Z,3.15
2023-05-17T07:20:35.086Z,2.50
2023-05-17T07:23:37.032Z,2.35
2023-05-17T07:26:38.692Z,2.05
2023-05-17T07:29:42.244Z,2.35
2023-05-17T07:32:44.031Z,2.10
2023-05-17T07:35:45.822Z,1.80
2023-05-17T07:38:48.333Z,1.88
2023-05-17T07:41:50.009Z,1.90
2023-05-17T07:44:51.718Z,1.95
2023-05-17T07:47:53.691Z,1.30
2023-05-17T07:50:57.748Z,1.65
2023-05-17T07:53:59.629Z,1.33
2023-05-17T07:57:01.328Z,1.23
2023-05-17T08:00:03.200Z,1.10
2023-05-17T08:03:15.020Z,1.48
2023-05-17T08:06:18.399Z,1.52
2023-05-17T08:09:20.150Z,1.13
2023-05-17T08:12:21.820Z,1.30
2023-05-17T08:15:23.560Z,1.33
2023-05-17T08:18:25.603Z,1.10
2023-05-17T08:21:27.549Z,1.50
2023-05-17T08:24:31.363Z,1.35
2023-05-17T08:27:33.077Z,1.50
2023-05-17T08:30:34.790Z,1.52
2023-05-17T08:33:36.600Z,1.30
2023-05-17T08:36:38.549Z,1.33
2023-05-17T08:39:40.441Z,1.20
2023-05-17T08:42:43.347Z,2.03
2023-05-17T08:45:45.139Z,1.48
2023-05-17T08:48:50.444Z,1.30
2023-05-17T08:51:54.420Z,1.40
2023-05-17T08:54:56.463Z,1.52
2023-05-17T08:57:58.948Z,1.40
2023-05-17T09:01:02.256Z,1.42
2023-05-17T09:04:05.132Z,1.50
2023-05-17T09:07:06.817Z,1.70
2023-05-17T09:10:09.323Z,1.30
2023-05-17T09:13:12.777Z,1.60
2023-05-17T09:16:15.043Z,1.40
2023-05-17T09:19:17.700Z,1.33
2023-05-17T09:22:20.309Z,1.20
2023-05-17T09:25:24.211Z,1.57
2023-05-17T09:28:29.399Z,1.20
2023-05-17T09:31:31.574Z,1.00
2023-05-17T09:34:33.802Z,1.10
2023-05-17T09:37:41.170Z,1.40
2023-05-17T09:40:44.683Z,1.52
2023-05-17T09:43:46.347Z,1.10
2023-05-17T09:46:48.908Z,1.40
2023-05-17T09:49:51.134Z,1.20
2023-05-17T09:52:52.837Z,1.45
2023-05-17T09:55:57.301Z,1.55
2023-05-17T09:59:01.565Z,1.25
2023-05-17T10:02:07.948Z,1.42
2023-05-17T10:05:15.909Z,1.40
2023-05-17T10:08:21.350Z,1.20
2023-05-17T10:11:28.390Z,1.67
2023-05-17T10:14:32.473Z,1.40
2023-05-17T10:17:35.926Z,1.30
2023-05-17T10:20:38.235Z,1.13
2023-05-17T10:23:44.152Z,1.00
2023-05-17T10:26:46.010Z,1.05
2023-05-17T10:29:50.499Z,1.73
2023-05-17T10:32:53.647Z,1.10
2023-05-17T10:35:56.350Z,1.20
2023-05-17T10:38:59.329Z,1.15
2023-05-17T10:42:13.572Z,1.20
2023-05-17T10:45:16.874Z,1.30
2023-05-17T10:48:18.902Z,1.00
2023-05-17T10:51:26.186Z,1.30
2023-05-17T10:54:36.092Z,1.30
2023-05-17T10:57:50.562Z,1.23
2023-05-17T11:00:55.746Z,1.50
2023-05-17T11:03:58.040Z,1.50
2023-05-17T11:07:19.174Z,1.20
2023-05-17T11:10:22.233Z,1.13
2023-05-17T11:16:34.759Z,1.30
2023-05-17T11:19:38.450Z,1.23
2023-05-17T11:23:06.818Z,1.55
2023-05-17T11:26:22.949Z,1.60
2023-05-17T11:29:29.632Z,1.58
2023-05-17T11:32:32.664Z,1.30
2023-05-17T11:35:39.385Z,1.10
2023-05-17T11:38:41.122Z,1.65
2023-05-17T11:41:50.054Z,1.27
2023-05-17T11:44:51.748Z,1.23
2023-05-17T11:47:53.892Z,1.15
2023-05-17T11:50:56.853Z,1.20
2023-05-17T11:57:02.849Z,1.45
2023-05-17T12:00:05.500Z,1.30
2023-05-17T12:03:19.648Z,1.70
2023-05-17T12:06:21.480Z,1.38
2023-05-17T12:09:24.324Z,1.42
2023-05-17T12:12:26.204Z,1.42
2023-05-17T12:15:30.488Z,1.40
2023-05-17T12:18:42.542Z,2.88
2023-05-17T12:21:44.289Z,1.05
2023-05-17T12:24:45.956Z,1.20
2023-05-17T12:27:47.564Z,1.25
2023-05-17T12:30:53.971Z,1.40
2023-05-17T12:33:56.355Z,1.73
2023-05-17T12:36:58.319Z,1.23
2023-05-17T12:40:02.828Z,1.40
2023-05-17T12:43:04.601Z,1.38
2023-05-17T12:46:08.411Z,2.05
2023-05-17T12:49:11.861Z,1.77
2023-05-17T12:52:13.635Z,1.80
2023-05-17T12:55:15.283Z,1.40
2023-05-17T12:58:17.208Z,1.52
2023-05-17T13:01:18.832Z,1.33
2023-05-17T13:04:21.470Z,1.50
2023-05-17T13:07:24.379Z,1.60
2023-05-17T13:10:27.703Z,1.33
2023-05-17T13:13:33.480Z,1.17
2023-05-17T13:16:38.538Z,1.42
2023-05-17T13:19:40.316Z,1.40
2023-05-17T13:22:51.010Z,1.67
2023-05-17T13:25:54.039Z,1.55
2023-05-17T13:28:55.725Z,1.35
2023-05-17T13:31:57.270Z,1.48
2023-05-17T13:34:58.885Z,1.38
2023-05-17T13:38:00.485Z,1.40
2023-05-17T13:41:02.179Z,1.35
2023-05-17T13:44:03.756Z,1.48
2023-05-17T13:47:05.771Z,1.60
2023-05-17T13:50:08.108Z,1.40
2023-05-17T13:53:09.698Z,1.40
2023-05-17T13:56:11.370Z,1.30
2023-05-17T13:59:12.934Z,1.48
2023-05-17T14:02:15.147Z,1.20
2023-05-17T14:05:16.768Z,1.63
2023-05-17T14:08:20.147Z,1.70
2023-05-17T14:11:21.828Z,1.48
2023-05-17T14:14:26.051Z,1.30
2023-05-17T14:17:27.697Z,1.38
2023-05-17T14:20:29.454Z,1.20
2023-05-17T14:23:31.215Z,1.23
2023-05-17T14:26:32.850Z,1.52
2023-05-17T14:29:34.452Z,1.80
2023-05-17T14:32:36.509Z,2.88
2023-05-17T14:35:38.174Z,1.30
2023-05-17T14:38:39.769Z,1.35
2023-05-17T14:41:42.217Z,1.50
2023-05-17T14:44:45.905Z,1.50
2023-05-17T14:47:47.511Z,2.08
2023-05-17T14:50:49.174Z,1.77
2023-05-17T14:53:51.472Z,1.38
2023-05-17T14:56:53.414Z,1.30
2023-05-17T14:59:55.177Z,1.53
2023-05-17T15:02:57.051Z,1.30
2023-05-17T15:05:58.766Z,1.60
2023-05-17T15:09:02.220Z,1.55
2023-05-17T15:12:04.118Z,1.30
2023-05-17T15:15:06.722Z,1.67
2023-05-17T15:18:08.539Z,1.65
2023-05-17T15:21:10.468Z,1.20
2023-05-17T15:24:13.632Z,1.23
2023-05-17T15:27:17.289Z,1.13
2023-05-17T15:30:20.352Z,1.50
2023-05-17T15:33:22.262Z,1.35
2023-05-17T15:36:24.102Z,1.37
2023-05-17T15:39:25.860Z,1.23
2023-05-17T15:42:27.454Z,1.40
2023-05-17T15:45:29.364Z,1.50
2023-05-17T15:48:31.583Z,1.27
2023-05-17T15:51:33.610Z,1.33
2023-05-17T15:54:35.336Z,1.30
2023-05-17T15:57:37.996Z,1.60
2023-05-17T16:00:39.584Z,1.45
2023-05-17T16:03:41.440Z,1.67
2023-05-17T16:06:43.278Z,1.27
2023-05-17T16:09:44.974Z,1.37
2023-05-17T16:12:47.665Z,1.13
2023-05-17T16:15:49.410Z,1.60
2023-05-17T16:18:51.276Z,1.20
2023-05-17T16:21:53.022Z,1.60
2023-05-17T16:24:55.235Z,1.88
2023-05-17T16:27:57.058Z,1.50
2023-05-17T16:31:03.377Z,1.30
2023-05-17T16:34:05.158Z,1.60
2023-05-17T16:37:07.256Z,1.40
2023-05-17T16:40:10.103Z,1.60
2023-05-17T16:43:15.924Z,1.40
2023-05-17T16:46:19.134Z,1.50
2023-05-17T16:49:20.807Z,1.40
2023-05-17T16:52:23.133Z,1.40
2023-05-17T16:55:24.864Z,1.52
2023-05-17T16:58:26.730Z,1.45
2023-05-17T17:01:28.737Z,1.30
2023-05-17T17:04:31.932Z,1.40
2023-05-17T17:07:33.491Z,1.50
2023-05-17T17:10:36.015Z,1.30
2023-05-17T17:13:37.997Z,1.52
2023-05-17T17:16:39.763Z,1.95
2023-05-17T17:19:42.380Z,1.40
2023-05-17T17:22:43.962Z,1.83
2023-05-17T17:25:45.655Z,1.92
2023-05-17T17:28:47.502Z,2.00
2023-05-17T17:31:49.355Z,1.80
2023-05-17T17:34:52.218Z,1.55
2023-05-17T17:37:53.816Z,1.70
2023-05-17T17:40:55.463Z,1.90
2023-05-17T17:43:57.073Z,1.52
2023-05-17T17:46:58.718Z,1.63
2023-05-17T17:50:00.500Z,1.50
2023-05-17T17:53:02.106Z,2.00
2023-05-17T17:56:06.510Z,1.85
2023-05-17T17:59:08.171Z,1.58
2023-05-17T18:02:10.100Z,1.70
2023-05-17T18:05:12.242Z,1.88
2023-05-17T18:08:13.846Z,1.63
2023-05-17T18:11:15.988Z,2.13
2023-05-17T18:14:17.662Z,2.35
2023-05-17T18:17:19.607Z,2.88
2023-05-17T18:20:22.716Z,1.90
2023-05-17T18:26:26.229Z,3.38
2023-05-17T18:29:27.845Z,1.63
2023-05-17T18:32:30.947Z,1.80
2023-05-17T18:35:33.397Z,1.75
2023-05-17T18:38:35.508Z,2.23
2023-05-17T18:41:37.184Z,2.28
2023-05-17T18:44:38.767Z,2.03
2023-05-17T18:47:40.487Z,2.15
2023-05-17T18:50:43.238Z,1.80
2023-05-17T18:53:44.904Z,1.52
2023-05-17T18:56:46.555Z,1.40
2023-05-17T18:59:48.262Z,1.50
2023-05-17T19:02:49.960Z,1.65
2023-05-17T19:05:51.624Z,1.95
2023-05-17T19:08:54.104Z,1.85
2023-05-17T19:11:56.665Z,1.80
2023-05-17T19:14:58.296Z,1.70
2023-05-17T19:18:00.097Z,1.90
2023-05-17T19:21:02.164Z,1.90
2023-05-17T19:24:05.633Z,1.80
2023-05-17T19:27:07.263Z,1.63
2023-05-17T19:30:09.872Z,1.63
2023-05-17T19:33:12.106Z,1.92
2023-05-17T19:36:13.815Z,1.63
2023-05-17T19:39:18.475Z,1.90
2023-05-17T19:42:23.051Z,1.70
2023-05-17T19:45:24.723Z,1.95
2023-05-17T19:48:26.781Z,1.95
2023-05-17T19:51:28.459Z,2.22
2023-05-17T19:54:30.540Z,2.03
2023-05-17T19:57:32.678Z,2.20
2023-05-17T20:00:34.349Z,1.92
2023-05-17T20:03:36.079Z,2.28
2023-05-17T20:06:37.955Z,18.73
2023-05-17T20:09:39.832Z,23.52
2023-05-17T20:12:41.928Z,11.73
2023-05-17T20:15:43.536Z,4.03
2023-05-17T20:18:45.528Z,2.60
2023-05-17T20:21:47.352Z,2.20
2023-05-17T20:24:49.002Z,2.75
2023-05-17T20:27:50.756Z,2.70
2023-05-17T20:30:53.545Z,2.40
2023-05-17T20:33:55.185Z,2.95
2023-05-17T20:36:57.257Z,2.97
2023-05-17T20:40:00.062Z,2.80
2023-05-17T20:43:01.735Z,3.03
2023-05-17T20:46:07.578Z,3.80
2023-05-17T20:49:09.803Z,3.22
2023-05-17T20:52:11.868Z,3.75
2023-05-17T20:55:13.547Z,2.40
2023-05-17T20:58:15.182Z,3.05
2023-05-17T21:01:16.868Z,3.83
2023-05-17T21:04:19.070Z,3.55
2023-05-17T21:07:20.905Z,2.60
2023-05-17T21:10:23.164Z,2.80
2023-05-17T21:13:25.833Z,2.90
2023-05-17T21:16:27.548Z,2.53
2023-05-17T21:19:29.564Z,2.78
2023-05-17T21:22:31.193Z,1.98
2023-05-17T21:25:34.051Z,2.42
2023-05-17T21:28:35.743Z,2.60
2023-05-17T21:31:37.843Z,2.30
2023-05-17T21:34:39.922Z,2.90
2023-05-17T21:37:42.269Z,4.07
2023-05-17T21:40:43.962Z,3.83
2023-05-17T21:43:45.928Z,4.57
2023-05-17T21:46:47.568Z,5.40
2023-05-17T21:49:49.232Z,5.35
2023-05-17T21:52:50.921Z,4.60
2023-05-17T21:56:02.055Z,4.30
2023-05-17T21:59:04.741Z,3.50
2023-05-17T22:02:08.538Z,3.08
2023-05-17T22:05:10.718Z,3.33
2023-05-17T22:08:12.429Z,4.10
2023-05-17T22:11:14.453Z,2.90
2023-05-17T22:14:16.345Z,4.07
2023-05-17T22:17:17.936Z,5.22
2023-05-17T22:20:23.572Z,5.25
2023-05-17T22:23:26.331Z,5.45
2023-05-17T22:26:27.991Z,5.10
2023-05-17T22:29:29.630Z,5.13
2023-05-17T22:32:32.012Z,5.05
2023-05-17T22:35:33.616Z,4.30
2023-05-17T22:38:35.440Z,4.38
2023-05-17T22:41:37.299Z,3.78
2023-05-17T22:44:38.940Z,3.22
2023-05-17T22:47:43.878Z,3.72
2023-05-17T22:50:46.984Z,4.35
2023-05-17T22:53:48.628Z,4.15
2023-05-17T22:56:50.284Z,4.60
2023-05-17T22:59:51.904Z,4.55
2023-05-17T23:02:53.908Z,5.97
2023-05-17T23:06:02.458Z,6.75
2023-05-17T23:09:05.176Z,6.85
2023-05-17T23:12:07.661Z,3.63
2023-05-17T23:15:10.486Z,3.00
2023-05-17T23:18:12.626Z,5.65
2023-05-17T23:21:14.279Z,6.80
2023-05-17T23:24:15.887Z,8.02
2023-05-17T23:27:18.475Z,8.43
2023-05-17T23:30:20.758Z,8.57
2023-05-17T23:33:22.375Z,8.45
2023-05-17T23:36:23.994Z,6.05
2023-05-17T23:39:25.716Z,5.03
2023-05-17T23:42:29.356Z,5.05
2023-05-17T23:45:31.364Z,5.97
2023-05-17T23:48:34.211Z,6.25
2023-05-17T23:51:36.582Z,4.85
2023-05-17T23:54:39.561Z,2.95
2023-05-17T23:57:42.364Z,3.92
